Terminal Aerodrome Forecast
Issued by NWS

Home | Current Version | Previous Version | Text Only | Print | Product List | Glossary On
Versions: 1 2 3 4 5 6 7 8 9 10 11 12 13 14 15 16 17 18 19 20 21 22 23 24 25 26 27 28 29 30 31 32 33 34 35 36 37 38 39 40 41
000
FTUS45 KGJT 010534
TAFASE
TAF
KASE 010534Z 0106/0206 VRB03KT P6SM VCFG BKN009
     FM011000 VRB03KT 3SM BR BKN005
     FM011500 VRB03KT P6SM FEW010 SCT050
     FM011800 34005KT P6SM SCT035 BKN090
     FM020200 21005KT P6SM SCT050 BKN070=

USA.gov is the U.S. government's official web portal to all federal, state and local government web resources and services.